Sister Bay, WI (54234)

9:33 AM CST on December 22, 2014 (GMT -0600)
2 miles North of town | Change Station
CLOSE
Current Station
Personal Weather Station
Location: Sister Bay, WI
Elevation: 710 ft
Nearby Weather Stations

Elev 710 ft 45.22 °N, 87.11 °W | Updated 14 minutes ago

Overcast
Overcast
34.1 °F
Feels Like 24 °F
N
17.0
Wind Variable Wind from SSE
Gusts 25.0 mph

Today
High -- | Low -- °F
--% Chance of Precip.
Yesterday
High -- | Low -- °F
Precip. -- in
7:24 AM 4:09 PM
New Moon, 0% visible
Pressure 29.92 in
Visibility 3.0 miles
Clouds Overcast 1000 ft
Windchill 24 °F
Dew Point 31 °F
Humidity 88%
Rainfall -999.00 in
Snow Depth Not available.
UV 0 out of 12
Pollen .10 out of 12
Air Quality Not available.
Flu Activity Not available.
METAR KMNM 221515Z AUTO 17007G15KT 3SM OVC010 02/01 A2992 RMK AO1

More Conditions Fewer Conditions

Pressure 29.92 in
Visibility 3.0 miles
Clouds Overcast 1000 ft
Windchill 24 °F
Dew Point 31 °F
Humidity 88%
Rainfall -999.00 in
Snow Depth Not available.
UV 0 out of 12
Pollen .10 out of 12
Air Quality Not available.
Flu Activity Not available.
METAR KMNM 221515Z AUTO 17007G15KT 3SM OVC010 02/01 A2992 RMK AO1

More Conditions Fewer Conditions

10-Day Weather Forecast

Almanac

Astronomy

Dec. 22, 2014 Rise Set
Actual Time
Civil Twilight
Nautical Twilight
Astronomical Twilight
Moon
Length of Visible Light
Length of Day
Tomorrow will be .
, % of the Moon is Illuminated

Today's Extremes

State Highs State Lows

Community

WunderPhotos

Upload Photos

1,779,619 photos uploaded!

WunderBlogs® & News

Nearby

Air Quality

  Air Quality AQ Index Pollutant
Not available.

Snow Depth

Station Depth Elevation

Earthquake Activity

City Distance Mag. Time & Date
Minimum magnitude displayed is 2.5.

Coastal Water Temperatures

Place Temperature

Nearby Weather Stations